createdAt,value
2018-09-22T00:00:10.791Z,10.20
2018-09-22T00:02:41.391Z,10.20
2018-09-22T00:05:11.521Z,10.20
2018-09-22T00:07:41.396Z,10.10
2018-09-22T00:10:11.715Z,10.10
2018-09-22T00:12:41.846Z,10.10
2018-09-22T00:15:12.110Z,10.10
2018-09-22T00:17:42.993Z,10.00
2018-09-22T00:20:13.029Z,10.00
2018-09-22T00:22:43.305Z,10.00
2018-09-22T00:25:13.531Z,10.00
2018-09-22T00:27:43.425Z,10.10
2018-09-22T00:30:13.325Z,10.10
2018-09-22T00:32:43.589Z,10.10
2018-09-22T00:35:13.670Z,10.20
2018-09-22T00:37:43.941Z,10.30
2018-09-22T00:40:14.484Z,10.40
2018-09-22T00:42:44.582Z,10.50
2018-09-22T00:45:14.693Z,10.50
2018-09-22T00:47:45.158Z,10.50
2018-09-22T00:50:15.335Z,10.60
2018-09-22T00:52:45.374Z,10.60
2018-09-22T00:55:16.250Z,10.60
2018-09-22T00:57:46.325Z,10.50
2018-09-22T01:00:16.478Z,10.50
2018-09-22T01:02:46.476Z,10.50
2018-09-22T01:05:17.073Z,10.50
2018-09-22T01:07:47.126Z,10.60
2018-09-22T01:10:17.332Z,10.60
2018-09-22T01:12:47.583Z,10.70
2018-09-22T01:15:17.490Z,10.80
2018-09-22T01:17:47.610Z,10.80
2018-09-22T01:20:17.919Z,10.90
2018-09-22T01:22:48.097Z,11.00
2018-09-22T01:25:18.487Z,10.90
2018-09-22T01:27:48.593Z,11.00
2018-09-22T01:30:18.754Z,11.10
2018-09-22T01:32:48.589Z,11.00
2018-09-22T01:35:18.730Z,11.10
2018-09-22T01:37:48.853Z,11.10
2018-09-22T01:40:18.868Z,11.10
2018-09-22T01:42:49.110Z,11.10
2018-09-22T01:45:19.315Z,11.10
2018-09-22T01:47:49.894Z,11.00
2018-09-22T01:50:19.902Z,11.00
2018-09-22T01:52:50.276Z,10.90
2018-09-22T01:55:20.934Z,10.90
2018-09-22T01:57:51.086Z,10.90
2018-09-22T02:00:20.906Z,10.90
2018-09-22T02:02:51.542Z,10.80
2018-09-22T02:05:22.060Z,10.90
2018-09-22T02:07:52.212Z,10.80
2018-09-22T02:10:22.754Z,10.50
2018-09-22T02:12:52.609Z,10.70
2018-09-22T02:15:22.825Z,10.60
2018-09-22T02:17:53.791Z,10.60
2018-09-22T02:20:24.284Z,10.60
2018-09-22T02:22:54.485Z,10.50
2018-09-22T02:25:25.061Z,10.50
2018-09-22T02:27:55.216Z,10.60
2018-09-22T02:30:25.454Z,10.60
2018-09-22T02:32:55.817Z,10.70
2018-09-22T02:35:26.295Z,10.70
2018-09-22T02:37:56.378Z,10.70
2018-09-22T02:40:27.159Z,10.70
2018-09-22T02:42:57.655Z,10.60
2018-09-22T02:45:28.443Z,10.50
2018-09-22T02:47:58.899Z,10.50
2018-09-22T02:50:28.898Z,10.40
2018-09-22T02:52:58.878Z,10.40
2018-09-22T02:55:29.666Z,10.30
2018-09-22T02:57:59.784Z,10.30
2018-09-22T03:00:29.854Z,10.30
2018-09-22T03:03:00.447Z,10.30
2018-09-22T03:05:30.901Z,10.30
2018-09-22T03:08:00.923Z,10.40
2018-09-22T03:10:31.268Z,10.40
2018-09-22T03:13:01.414Z,10.50
2018-09-22T03:15:31.530Z,10.40
2018-09-22T03:18:02.198Z,10.50
2018-09-22T03:20:32.634Z,10.40
2018-09-22T03:23:02.713Z,10.40
2018-09-22T03:25:32.897Z,10.30
2018-09-22T03:28:03.014Z,10.30
2018-09-22T03:30:33.502Z,10.30
2018-09-22T03:33:03.604Z,10.20
2018-09-22T03:35:33.506Z,10.20
2018-09-22T03:38:04.277Z,10.20
2018-09-22T03:40:34.611Z,10.10
2018-09-22T03:43:04.703Z,10.10
2018-09-22T03:45:35.189Z,10.10
2018-09-22T03:48:05.323Z,10.10
2018-09-22T03:50:35.796Z,10.20
2018-09-22T03:53:06.414Z,10.20
2018-09-22T03:55:36.491Z,10.20
2018-09-22T03:58:06.537Z,10.20
2018-09-22T04:00:37.205Z,9.70
2018-09-22T04:03:07.851Z,9.90
2018-09-22T04:05:37.882Z,9.90
2018-09-22T04:08:08.469Z,9.80
2018-09-22T04:10:38.462Z,9.80
2018-09-22T04:13:08.755Z,9.80
2018-09-22T04:15:39.048Z,9.80
2018-09-22T04:18:09.466Z,9.70
2018-09-22T04:20:39.654Z,9.70
2018-09-22T04:23:09.529Z,9.70
2018-09-22T04:25:39.984Z,9.60
2018-09-22T04:28:10.181Z,9.60
2018-09-22T04:30:40.186Z,9.60
2018-09-22T04:33:10.732Z,9.50
2018-09-22T04:35:40.746Z,9.50
2018-09-22T04:38:10.664Z,9.40
2018-09-22T04:40:41.475Z,9.30
2018-09-22T04:43:11.505Z,9.30
2018-09-22T04:45:41.314Z,9.30
2018-09-22T04:48:12.002Z,9.30
2018-09-22T04:50:42.115Z,9.30
2018-09-22T04:53:11.937Z,9.20
2018-09-22T04:55:42.527Z,9.20
2018-09-22T04:58:12.646Z,9.20
2018-09-22T05:00:42.864Z,9.20
2018-09-22T05:03:13.461Z,9.30
2018-09-22T05:05:43.669Z,9.40
2018-09-22T05:08:13.916Z,9.50
2018-09-22T05:10:44.266Z,9.50
2018-09-22T05:13:14.076Z,9.60
2018-09-22T05:15:44.092Z,9.60
2018-09-22T05:18:14.778Z,9.60
2018-09-22T05:20:44.725Z,9.70
2018-09-22T05:23:14.853Z,9.70
2018-09-22T05:25:45.410Z,9.70
2018-09-22T05:28:15.825Z,9.70
2018-09-22T05:35:33.441Z,9.80
2018-09-22T05:38:03.664Z,9.70
2018-09-22T05:40:34.512Z,9.70
2018-09-22T05:43:28.261Z,9.70
2018-09-22T05:45:58.194Z,9.60
2018-09-22T05:48:28.118Z,9.70
2018-09-22T05:50:57.986Z,9.70
2018-09-22T05:53:28.925Z,9.70
2018-09-22T05:55:59.169Z,9.60
2018-09-22T05:58:46.517Z,9.70
2018-09-22T06:01:21.448Z,9.70
2018-09-22T06:04:00.681Z,9.70
2018-09-22T06:06:54.608Z,9.80
2018-09-22T06:09:26.966Z,9.80
2018-09-22T06:11:59.451Z,9.80
2018-09-22T06:14:58.755Z,9.90
2018-09-22T06:17:43.426Z,9.90
2018-09-22T06:20:17.451Z,10.00
2018-09-22T06:22:53.939Z,10.10
2018-09-22T06:25:28.098Z,10.10
2018-09-22T06:27:59.825Z,10.20
2018-09-22T06:30:35.404Z,10.30
2018-09-22T06:33:10.125Z,10.30
2018-09-22T06:35:40.528Z,10.40
2018-09-22T06:38:18.621Z,10.40
2018-09-22T06:40:48.851Z,10.50
2018-09-22T06:43:19.498Z,10.60
2018-09-22T06:45:52.724Z,10.60
2018-09-22T06:48:30.063Z,10.70
2018-09-22T06:51:07.411Z,10.70
2018-09-22T06:53:54.018Z,10.80
2018-09-22T06:56:29.171Z,10.90
2018-09-22T06:59:02.609Z,11.00
2018-09-22T07:01:45.796Z,11.00
2018-09-22T07:04:17.438Z,11.10
2018-09-22T07:06:49.186Z,11.10
2018-09-22T07:09:26.998Z,11.20
2018-09-22T07:11:59.538Z,11.30
2018-09-22T07:14:32.289Z,11.40
2018-09-22T07:17:10.432Z,11.50
2018-09-22T07:19:41.406Z,11.50
2018-09-22T07:22:16.814Z,11.60
2018-09-22T07:24:47.110Z,11.70
2018-09-22T07:27:33.869Z,11.80
2018-09-22T07:30:03.694Z,11.70
2018-09-22T07:32:33.829Z,11.80
2018-09-22T07:35:04.058Z,11.90
2018-09-22T07:37:34.272Z,12.00
2018-09-22T07:40:04.415Z,12.00
2018-09-22T07:42:34.862Z,12.10
2018-09-22T07:45:04.977Z,12.20
2018-09-22T07:47:35.013Z,12.20
2018-09-22T07:50:05.322Z,12.20
2018-09-22T07:52:35.298Z,12.30
2018-09-22T07:55:05.466Z,12.40
2018-09-22T07:57:35.565Z,12.50
2018-09-22T08:00:06.160Z,12.60
2018-09-22T08:02:36.678Z,12.70
2018-09-22T08:05:07.242Z,12.80
2018-09-22T08:07:37.173Z,12.90
2018-09-22T08:10:07.676Z,12.90
2018-09-22T08:12:37.801Z,13.00
2018-09-22T08:15:08.332Z,13.10
2018-09-22T08:17:38.891Z,13.10
2018-09-22T08:20:08.982Z,13.10
2018-09-22T08:22:38.801Z,13.30
2018-09-22T08:25:09.604Z,13.40
2018-09-22T08:27:40.229Z,13.40
2018-09-22T08:30:10.314Z,13.50
2018-09-22T08:32:40.184Z,13.50
2018-09-22T08:35:10.166Z,13.50
2018-09-22T08:37:40.001Z,13.30
2018-09-22T08:40:10.498Z,13.30
2018-09-22T08:42:40.353Z,13.40
2018-09-22T08:45:10.281Z,13.50
2018-09-22T08:47:40.138Z,13.60
2018-09-22T08:50:10.037Z,13.80
2018-09-22T08:52:40.404Z,13.70
2018-09-22T08:55:10.294Z,13.80
2018-09-22T08:57:40.203Z,13.90
2018-09-22T09:00:10.097Z,14.00
2018-09-22T09:02:40.089Z,13.90
2018-09-22T09:05:10.537Z,14.10
2018-09-22T09:07:40.374Z,14.10
2018-09-22T09:10:10.337Z,14.40
2018-09-22T09:12:40.177Z,14.40
2018-09-22T09:15:09.975Z,14.40
2018-09-22T09:17:40.573Z,14.50
2018-09-22T09:20:10.407Z,14.60
2018-09-22T09:22:40.490Z,14.80
2018-09-22T09:25:10.716Z,14.90
2018-09-22T09:27:40.602Z,15.10
2018-09-22T09:30:10.510Z,15.40
2018-09-22T09:32:40.598Z,15.50
2018-09-22T09:35:10.498Z,15.60
2018-09-22T09:37:40.830Z,15.70
2018-09-22T09:40:10.650Z,15.90
2018-09-22T09:42:40.499Z,15.70
2018-09-22T09:45:11.246Z,15.80
2018-09-22T09:47:41.098Z,15.90
2018-09-22T09:50:10.936Z,16.20
2018-09-22T09:52:41.149Z,16.10
2018-09-22T09:55:10.950Z,15.80
2018-09-22T09:57:40.994Z,15.80
2018-09-22T10:00:11.373Z,15.60
2018-09-22T10:02:41.236Z,15.60
2018-09-22T10:05:11.097Z,15.80
2018-09-22T10:07:41.345Z,15.90
2018-09-22T10:10:11.318Z,16.10
2018-09-22T10:12:41.124Z,16.00
2018-09-22T10:15:11.029Z,16.00
2018-09-22T10:17:40.860Z,16.00
2018-09-22T10:20:10.701Z,15.90
2018-09-22T10:22:40.547Z,15.90
2018-09-22T10:25:10.426Z,15.90
2018-09-22T10:27:40.650Z,15.80
2018-09-22T10:30:10.558Z,15.80
2018-09-22T10:32:40.382Z,15.90
2018-09-22T10:35:10.696Z,16.00
2018-09-22T10:37:40.538Z,16.10
2018-09-22T10:40:10.458Z,16.20
2018-09-22T10:42:40.715Z,16.10
2018-09-22T10:45:10.750Z,16.00
2018-09-22T10:47:40.620Z,16.10
2018-09-22T10:50:11.038Z,16.30
2018-09-22T10:52:40.939Z,16.10
2018-09-22T10:55:10.819Z,16.10
2018-09-22T10:57:41.116Z,16.40
2018-09-22T11:00:11.006Z,16.40
2018-09-22T11:02:40.843Z,16.40
2018-09-22T11:05:11.042Z,16.20
2018-09-22T11:07:40.858Z,16.20
2018-09-22T11:10:10.758Z,16.40
2018-09-22T11:12:40.618Z,16.60
2018-09-22T11:15:10.453Z,16.70
2018-09-22T11:17:40.334Z,16.50
2018-09-22T11:20:10.522Z,16.50
2018-09-22T11:22:40.332Z,16.60
2018-09-22T11:25:10.135Z,16.80
2018-09-22T11:27:39.946Z,16.60
2018-09-22T11:30:09.847Z,16.80
2018-09-22T11:32:39.797Z,16.80
2018-09-22T11:35:10.387Z,16.60
2018-09-22T11:37:40.258Z,16.60
2018-09-22T11:40:10.225Z,16.60
2018-09-22T11:42:40.047Z,16.60
2018-09-22T11:45:09.912Z,16.40
2018-09-22T11:47:40.233Z,16.50
2018-09-22T11:50:10.061Z,16.50
2018-09-22T11:52:39.898Z,16.60
2018-09-22T11:55:09.750Z,16.60
2018-09-22T11:57:40.246Z,16.60
2018-09-22T12:00:10.578Z,16.40
2018-09-22T12:02:40.428Z,16.20
2018-09-22T12:05:10.302Z,16.00
2018-09-22T12:07:40.213Z,15.80
2018-09-22T12:10:10.153Z,15.00
2018-09-22T12:12:39.983Z,13.10
2018-09-22T12:15:09.884Z,11.90
2018-09-22T12:17:39.890Z,11.30
2018-09-22T12:20:09.758Z,11.10
2018-09-22T12:22:40.026Z,11.00
2018-09-22T12:25:09.834Z,11.20
2018-09-22T12:27:39.950Z,11.20
2018-09-22T12:30:10.226Z,11.30
2018-09-22T12:32:40.444Z,11.40
2018-09-22T12:35:10.315Z,11.60
2018-09-22T12:37:40.606Z,11.80
2018-09-22T12:40:10.440Z,12.10
2018-09-22T12:42:40.357Z,12.20
2018-09-22T12:45:10.826Z,12.40
2018-09-22T12:47:41.050Z,12.50
2018-09-22T12:50:11.658Z,12.60
2018-09-22T12:52:41.530Z,12.70
2018-09-22T12:55:11.338Z,12.70
2018-09-22T12:57:41.621Z,12.90
2018-09-22T13:00:11.522Z,12.90
2018-09-22T13:02:41.397Z,13.10
2018-09-22T13:05:11.547Z,13.20
2018-09-22T13:07:41.423Z,13.10
2018-09-22T13:10:11.519Z,12.90
2018-09-22T13:12:42.159Z,12.50
2018-09-22T13:15:12.043Z,12.20
2018-09-22T13:17:42.449Z,12.10
2018-09-22T13:20:13.259Z,12.10
2018-09-22T13:22:43.373Z,12.10
2018-09-22T13:25:13.245Z,12.10
2018-09-22T13:27:43.561Z,12.30
2018-09-22T13:30:13.621Z,12.40
2018-09-22T13:32:43.449Z,12.50
2018-09-22T13:35:13.382Z,12.70
2018-09-22T13:37:44.700Z,12.80
2018-09-22T13:40:14.574Z,12.80
2018-09-22T13:42:44.426Z,12.80
2018-09-22T13:45:14.225Z,12.90
2018-09-22T13:47:44.415Z,12.90
2018-09-22T13:50:15.074Z,12.80
2018-09-22T13:52:44.896Z,13.00
2018-09-22T13:55:15.145Z,13.00
2018-09-22T13:57:46.048Z,13.20
2018-09-22T14:00:17.044Z,13.10
2018-09-22T14:02:47.325Z,13.20
2018-09-22T14:05:17.148Z,13.30
2018-09-22T14:07:50.064Z,13.30
2018-09-22T14:10:20.727Z,13.30
2018-09-22T14:12:50.925Z,13.40
2018-09-22T14:15:24.482Z,13.50
2018-09-22T14:17:55.602Z,13.50
2018-09-22T14:20:27.130Z,13.60
2018-09-22T14:22:59.193Z,13.60
2018-09-22T14:25:47.832Z,13.60
2018-09-22T14:28:19.074Z,13.60
2018-09-22T14:30:49.262Z,13.60
2018-09-22T14:33:20.493Z,13.70
2018-09-22T14:35:50.726Z,13.80
2018-09-22T14:38:22.396Z,13.80
2018-09-22T14:40:52.662Z,13.80
2018-09-22T14:43:23.699Z,13.90
2018-09-22T14:45:55.240Z,13.90
2018-09-22T14:48:25.073Z,14.00
2018-09-22T14:50:54.893Z,13.90
2018-09-22T14:53:25.102Z,14.00
2018-09-22T14:55:54.971Z,14.10
2018-09-22T14:58:26.879Z,13.90
2018-09-22T15:00:58.237Z,13.90
2018-09-22T15:03:28.448Z,14.00
2018-09-22T15:05:59.183Z,14.00
2018-09-22T15:08:29.477Z,13.80
2018-09-22T15:10:59.329Z,13.70
2018-09-22T15:13:29.545Z,13.60
2018-09-22T15:15:59.589Z,13.60
2018-09-22T15:18:29.483Z,13.40
2018-09-22T15:20:59.390Z,13.10
2018-09-22T15:23:29.206Z,12.60
2018-09-22T15:25:59.013Z,12.30
2018-09-22T15:28:29.346Z,12.20
2018-09-22T15:30:59.370Z,12.10
2018-09-22T15:33:29.654Z,12.10
2018-09-22T15:35:59.541Z,12.10
2018-09-22T15:38:29.530Z,12.30
2018-09-22T15:40:59.850Z,12.40
2018-09-22T15:43:33.236Z,12.40
2018-09-22T15:46:03.235Z,12.50
2018-09-22T15:48:33.143Z,12.90
2018-09-22T15:51:03.088Z,12.50
2018-09-22T15:53:33.339Z,12.60
2018-09-22T15:56:04.290Z,12.60
2018-09-22T15:58:34.568Z,12.60
2018-09-22T16:01:04.410Z,12.60
2018-09-22T16:03:34.496Z,12.60
2018-09-22T16:06:04.815Z,12.60
2018-09-22T16:08:34.647Z,12.50
2018-09-22T16:11:05.170Z,12.50
2018-09-22T16:13:35.453Z,12.50
2018-09-22T16:16:05.327Z,12.60
2018-09-22T16:18:35.202Z,12.50
2018-09-22T16:21:05.469Z,12.60
2018-09-22T16:23:35.341Z,12.60
2018-09-22T16:26:05.193Z,12.50
2018-09-22T16:28:35.325Z,12.50
2018-09-22T16:31:05.425Z,12.50
2018-09-22T16:33:35.785Z,12.60
2018-09-22T16:36:05.760Z,12.60
2018-09-22T16:38:36.125Z,12.60
2018-09-22T16:41:06.234Z,12.60
2018-09-22T16:43:36.054Z,12.60
2018-09-22T16:46:05.889Z,12.70
2018-09-22T16:48:36.017Z,12.70
2018-09-22T16:51:06.022Z,12.80
2018-09-22T16:53:36.707Z,12.90
2018-09-22T16:56:07.019Z,12.80
2018-09-22T16:58:37.081Z,12.80
2018-09-22T17:01:06.951Z,12.90
2018-09-22T17:03:36.989Z,12.80
2018-09-22T17:06:07.254Z,12.80
2018-09-22T17:08:37.389Z,12.80
2018-09-22T17:11:07.459Z,12.70
2018-09-22T17:13:37.666Z,12.70
2018-09-22T17:16:07.954Z,12.70
2018-09-22T17:18:37.851Z,12.80
2018-09-22T17:21:08.183Z,12.70
2018-09-22T17:23:38.073Z,12.70
2018-09-22T17:26:07.986Z,12.70
2018-09-22T17:28:37.829Z,12.60
2018-09-22T17:31:07.659Z,12.60
2018-09-22T17:33:37.831Z,12.60
2018-09-22T17:36:07.821Z,12.50
2018-09-22T17:38:37.708Z,12.50
2018-09-22T17:41:08.695Z,12.50
2018-09-22T17:43:39.647Z,12.50
2018-09-22T17:46:10.883Z,12.60
2018-09-22T17:48:40.734Z,12.70
2018-09-22T17:51:11.022Z,12.70
2018-09-22T17:53:40.882Z,12.70
2018-09-22T17:56:10.699Z,12.70
2018-09-22T17:58:40.523Z,12.70
2018-09-22T18:01:10.550Z,12.60
2018-09-22T18:03:40.427Z,12.50
2018-09-22T18:06:11.038Z,12.40
2018-09-22T18:08:40.872Z,12.40
2018-09-22T18:11:10.695Z,12.40
2018-09-22T18:13:41.697Z,12.30
2018-09-22T18:16:11.782Z,12.20
2018-09-22T18:18:41.895Z,12.10
2018-09-22T18:21:12.187Z,12.00
2018-09-22T18:23:42.114Z,12.00
2018-09-22T18:26:12.619Z,12.00
2018-09-22T18:28:42.490Z,11.90
2018-09-22T18:31:12.310Z,11.90
2018-09-22T18:33:42.718Z,11.80
2018-09-22T18:36:12.618Z,11.80
2018-09-22T18:38:42.649Z,11.80
2018-09-22T18:41:12.650Z,11.80
2018-09-22T18:43:42.725Z,11.70
2018-09-22T18:46:12.552Z,11.70
2018-09-22T18:48:42.699Z,11.70
2018-09-22T18:51:13.058Z,11.80
2018-09-22T18:53:43.306Z,11.80
2018-09-22T18:56:13.610Z,11.80
2018-09-22T18:58:43.758Z,11.70
2018-09-22T19:01:14.923Z,11.80
2018-09-22T19:03:45.186Z,11.80
2018-09-22T19:06:15.660Z,11.80
2018-09-22T19:08:46.040Z,11.80
2018-09-22T19:11:16.022Z,11.80
2018-09-22T19:13:54.026Z,11.80
2018-09-22T19:16:30.678Z,11.80
2018-09-22T19:19:06.375Z,11.70
2018-09-22T19:21:43.239Z,11.70
2018-09-22T19:24:17.573Z,11.70
2018-09-22T19:26:51.824Z,11.70
2018-09-22T19:31:29.569Z,11.70
2018-09-22T19:34:18.042Z,11.60
2018-09-22T19:36:53.492Z,11.50
2018-09-22T19:39:30.441Z,11.40
2018-09-22T19:42:09.981Z,11.40
2018-09-22T19:44:45.074Z,11.90
2018-09-22T19:47:18.481Z,11.30
2018-09-22T19:51:55.027Z,11.20
2018-09-22T19:54:24.989Z,11.20
2018-09-22T19:56:55.551Z,11.10
2018-09-22T19:59:27.696Z,11.00
2018-09-22T20:01:59.661Z,11.00
2018-09-22T20:04:31.604Z,10.90
2018-09-22T20:07:03.775Z,10.90
2018-09-22T20:09:35.773Z,10.80
2018-09-22T20:12:07.468Z,10.80
2018-09-22T20:14:39.668Z,10.80
2018-09-22T20:17:11.542Z,10.70
2018-09-22T20:19:43.279Z,10.60
2018-09-22T20:22:16.266Z,10.60
2018-09-22T20:24:48.840Z,10.50
2018-09-22T20:27:20.185Z,10.50
2018-09-22T20:29:52.168Z,10.40
2018-09-22T20:32:24.112Z,10.30
2018-09-22T20:34:56.062Z,10.30
2018-09-22T20:37:27.719Z,10.30
2018-09-22T20:39:59.306Z,10.30
2018-09-22T20:42:33.183Z,10.20
2018-09-22T20:45:04.935Z,10.20
2018-09-22T20:47:37.001Z,10.20
2018-09-22T20:50:09.151Z,10.10
2018-09-22T20:52:40.756Z,10.10
2018-09-22T20:55:12.889Z,10.00
2018-09-22T20:57:46.019Z,10.00
2018-09-22T21:00:17.424Z,10.00
2018-09-22T21:02:49.072Z,10.00
2018-09-22T21:05:20.729Z,10.00
2018-09-22T21:07:52.186Z,9.80
2018-09-22T21:10:24.228Z,9.90
2018-09-22T21:12:55.185Z,9.90
2018-09-22T21:15:26.136Z,9.90
2018-09-22T21:17:58.391Z,9.90
2018-09-22T21:20:29.987Z,9.90
2018-09-22T21:23:02.495Z,9.90
2018-09-22T21:25:33.959Z,9.80
2018-09-22T21:28:04.912Z,9.80
2018-09-22T21:30:37.218Z,9.80
2018-09-22T21:33:08.380Z,9.70
2018-09-22T21:35:40.499Z,9.70
2018-09-22T21:38:12.006Z,9.70
2018-09-22T21:40:44.377Z,9.70
2018-09-22T21:43:16.865Z,9.70
2018-09-22T21:45:49.065Z,10.10
2018-09-22T21:48:20.805Z,9.80
2018-09-22T21:50:52.169Z,9.80
2018-09-22T21:53:23.589Z,9.70
2018-09-22T21:55:54.643Z,9.90
2018-09-22T21:58:26.080Z,9.80
2018-09-22T22:00:56.945Z,9.80
2018-09-22T22:03:29.111Z,9.80
2018-09-22T22:06:01.375Z,9.80
2018-09-22T22:08:32.267Z,9.80
2018-09-22T22:11:04.088Z,9.80
2018-09-22T22:13:35.389Z,9.80
2018-09-22T22:16:06.668Z,9.80
2018-09-22T22:18:37.811Z,9.80
2018-09-22T22:21:09.249Z,9.90
2018-09-22T22:23:40.780Z,9.80
2018-09-22T22:26:12.132Z,9.80
2018-09-22T22:28:44.674Z,9.70
2018-09-22T22:31:16.473Z,9.70
2018-09-22T22:33:50.367Z,9.60
2018-09-22T22:36:22.237Z,9.60
2018-09-22T22:38:53.574Z,9.60
2018-09-22T22:41:25.308Z,9.50
2018-09-22T22:43:58.010Z,9.50
2018-09-22T22:46:30.074Z,9.40
2018-09-22T22:49:01.507Z,9.40
2018-09-22T22:51:33.092Z,9.30
2018-09-22T22:54:04.644Z,9.30
2018-09-22T22:56:36.996Z,9.30
2018-09-22T22:59:08.289Z,9.20
2018-09-22T23:01:40.362Z,9.30
2018-09-22T23:04:13.102Z,9.20
2018-09-22T23:06:44.372Z,9.20
2018-09-22T23:09:16.565Z,9.30
2018-09-22T23:11:48.366Z,9.30
2018-09-22T23:14:20.045Z,9.40
2018-09-22T23:16:52.170Z,9.40
2018-09-22T23:19:24.160Z,9.40
2018-09-22T23:21:55.696Z,9.50
2018-09-22T23:24:27.560Z,9.60
2018-09-22T23:27:00.033Z,9.60
2018-09-22T23:29:32.013Z,9.60
2018-09-22T23:32:04.598Z,9.70
2018-09-22T23:34:36.495Z,9.80
2018-09-22T23:37:07.483Z,9.80
2018-09-22T23:39:40.875Z,9.90
2018-09-22T23:42:14.073Z,9.90
2018-09-22T23:44:45.929Z,9.90
2018-09-22T23:47:17.976Z,9.90
2018-09-22T23:49:49.940Z,9.90
2018-09-22T23:52:22.619Z,10.00
2018-09-22T23:54:54.835Z,10.00
2018-09-22T23:57:28.998Z,10.00
